createdAt,value
2022-11-15T00:02:49.580Z,10.90
2022-11-15T00:05:51.740Z,10.90
2022-11-15T00:08:53.585Z,10.90
2022-11-15T00:11:55.818Z,10.80
2022-11-15T00:14:57.785Z,10.90
2022-11-15T00:17:59.500Z,10.80
2022-11-15T00:21:07.744Z,10.90
2022-11-15T00:24:09.658Z,10.90
2022-11-15T00:27:12.499Z,10.90
2022-11-15T00:30:14.433Z,11.00
2022-11-15T00:33:16.417Z,11.00
2022-11-15T00:36:18.268Z,11.00
2022-11-15T00:39:19.985Z,11.00
2022-11-15T00:42:21.752Z,11.00
2022-11-15T00:45:23.966Z,11.00
2022-11-15T00:48:26.346Z,11.00
2022-11-15T00:51:28.332Z,11.00
2022-11-15T00:54:30.158Z,11.00
2022-11-15T00:57:31.874Z,11.00
2022-11-15T01:00:34.081Z,11.00
2022-11-15T01:03:36.666Z,11.00
2022-11-15T01:06:38.480Z,11.00
2022-11-15T01:09:40.196Z,11.00
2022-11-15T01:12:41.899Z,11.00
2022-11-15T01:15:43.991Z,11.00
2022-11-15T01:18:46.786Z,11.00
2022-11-15T01:21:51.936Z,10.90
2022-11-15T01:24:53.636Z,10.90
2022-11-15T01:27:55.338Z,10.90
2022-11-15T01:31:06.457Z,10.90
2022-11-15T01:34:08.149Z,11.00
2022-11-15T01:37:11.066Z,10.90
2022-11-15T01:40:12.874Z,10.90
2022-11-15T01:43:41.079Z,10.90
2022-11-15T01:46:48.310Z,10.90
2022-11-15T01:50:04.996Z,10.90
2022-11-15T01:53:06.929Z,11.00
2022-11-15T01:56:18.231Z,11.00
2022-11-15T01:59:20.718Z,11.10
2022-11-15T02:02:22.825Z,11.10
2022-11-15T02:05:25.098Z,11.20
2022-11-15T02:08:27.187Z,11.20
2022-11-15T02:11:29.491Z,11.30
2022-11-15T02:14:32.309Z,11.30
2022-11-15T02:17:57.837Z,11.40
2022-11-15T02:21:06.509Z,11.40
2022-11-15T02:24:17.248Z,11.50
2022-11-15T02:27:24.999Z,11.50
2022-11-15T02:30:47.140Z,11.50
2022-11-15T02:34:07.859Z,11.50
2022-11-15T02:37:24.598Z,11.50
2022-11-15T02:40:50.370Z,11.50
2022-11-15T02:44:04.181Z,11.50
2022-11-15T02:47:15.857Z,11.40
2022-11-15T02:50:21.973Z,11.40
2022-11-15T02:53:27.294Z,11.40
2022-11-15T02:56:28.998Z,11.40
2022-11-15T02:59:58.840Z,11.40
2022-11-15T03:03:32.749Z,11.40
2022-11-15T03:06:47.164Z,11.50
2022-11-15T03:09:55.568Z,11.50
2022-11-15T03:13:05.248Z,11.50
2022-11-15T03:16:21.675Z,11.50
2022-11-15T03:19:48.301Z,11.50
2022-11-15T03:22:51.624Z,11.50
2022-11-15T03:25:55.912Z,11.40
2022-11-15T03:29:07.278Z,11.40
2022-11-15T03:32:15.057Z,11.40
2022-11-15T03:35:21.592Z,11.40
2022-11-15T03:38:28.009Z,11.40
2022-11-15T03:41:44.035Z,11.40
2022-11-15T03:45:17.268Z,11.40
2022-11-15T03:48:25.058Z,11.40
2022-11-15T03:51:26.959Z,11.30
2022-11-15T03:54:28.978Z,11.30
2022-11-15T03:57:31.302Z,11.30
2022-11-15T04:00:33.314Z,11.40
2022-11-15T04:03:35.753Z,11.40
2022-11-15T04:06:37.800Z,11.40
2022-11-15T04:09:59.460Z,11.30
2022-11-15T04:13:06.279Z,11.30
2022-11-15T04:16:08.278Z,11.40
2022-11-15T04:19:28.411Z,11.40
2022-11-15T04:22:48.757Z,11.30
2022-11-15T04:25:53.916Z,11.30
2022-11-15T04:29:14.214Z,11.40
2022-11-15T04:32:19.346Z,11.40
2022-11-15T04:35:21.061Z,11.30
2022-11-15T04:38:23.383Z,11.30
2022-11-15T04:41:25.132Z,11.40
2022-11-15T04:44:27.043Z,11.40
2022-11-15T04:47:30.395Z,11.40
2022-11-15T04:50:32.130Z,11.50
2022-11-15T04:53:34.378Z,11.50
2022-11-15T04:56:36.765Z,11.50
2022-11-15T04:59:39.465Z,11.50
2022-11-15T05:02:59.736Z,11.50
2022-11-15T05:06:01.506Z,11.50
2022-11-15T05:09:04.237Z,11.50
2022-11-15T05:12:06.217Z,11.50
2022-11-15T05:15:08.707Z,11.40
2022-11-15T05:18:10.636Z,11.50
2022-11-15T05:21:15.425Z,11.40
2022-11-15T05:24:17.324Z,11.30
2022-11-15T05:27:19.399Z,11.20
2022-11-15T05:30:21.250Z,11.10
2022-11-15T05:33:24.914Z,11.00
2022-11-15T05:36:31.200Z,11.00
2022-11-15T05:39:32.953Z,11.00
2022-11-15T05:42:35.550Z,11.00
2022-11-15T05:45:37.964Z,11.00
2022-11-15T05:48:44.152Z,11.10
2022-11-15T05:51:48.574Z,11.00
2022-11-15T05:54:51.625Z,11.00
2022-11-15T05:57:54.396Z,11.00
2022-11-15T06:00:56.131Z,11.00
2022-11-15T06:03:57.897Z,11.00
2022-11-15T06:07:00.160Z,11.00
2022-11-15T06:10:02.112Z,11.00
2022-11-15T06:13:05.303Z,10.90
2022-11-15T06:16:07.322Z,10.90
2022-11-15T06:19:09.329Z,10.90
2022-11-15T06:22:11.283Z,10.90
2022-11-15T06:25:13.202Z,10.90
2022-11-15T06:28:14.906Z,10.90
2022-11-15T06:31:16.677Z,10.90
2022-11-15T06:34:18.425Z,10.90
2022-11-15T06:37:20.414Z,10.80
2022-11-15T06:40:22.418Z,10.80
2022-11-15T06:43:24.444Z,10.80
2022-11-15T06:46:26.182Z,10.80
2022-11-15T06:49:27.929Z,10.80
2022-11-15T06:52:33.513Z,10.80
2022-11-15T06:55:35.554Z,10.80
2022-11-15T06:58:37.572Z,10.80
2022-11-15T07:01:39.436Z,10.90
2022-11-15T07:04:41.252Z,10.80
2022-11-15T07:07:43.346Z,10.90
2022-11-15T07:10:45.711Z,10.90
2022-11-15T07:13:47.586Z,10.90
2022-11-15T07:16:49.430Z,10.90
2022-11-15T07:19:51.123Z,10.90
2022-11-15T07:23:02.000Z,10.90
2022-11-15T07:26:03.795Z,10.90
2022-11-15T07:29:05.762Z,10.90
2022-11-15T07:32:07.444Z,10.90
2022-11-15T07:35:09.462Z,10.90
2022-11-15T07:38:12.307Z,10.90
2022-11-15T07:41:15.684Z,10.90
2022-11-15T07:44:17.469Z,10.90
2022-11-15T07:47:19.736Z,11.00
2022-11-15T07:50:21.474Z,10.90
2022-11-15T07:53:23.855Z,11.00
2022-11-15T07:56:25.534Z,11.00
2022-11-15T07:59:28.015Z,11.00
2022-11-15T08:02:30.745Z,11.00
2022-11-15T08:05:33.226Z,11.00
2022-11-15T08:08:35.201Z,11.00
2022-11-15T08:11:36.925Z,11.00
2022-11-15T08:14:39.550Z,11.00
2022-11-15T08:17:41.757Z,11.00
2022-11-15T08:20:44.367Z,11.10
2022-11-15T08:23:46.951Z,11.10
2022-11-15T08:26:49.090Z,11.10
2022-11-15T08:29:54.380Z,11.10
2022-11-15T08:32:59.439Z,11.10
2022-11-15T08:36:02.617Z,11.10
2022-11-15T08:39:15.709Z,11.10
2022-11-15T08:42:20.385Z,11.10
2022-11-15T08:45:22.584Z,11.20
2022-11-15T08:48:24.558Z,11.30
2022-11-15T08:51:26.748Z,11.30
2022-11-15T08:54:28.449Z,11.30
2022-11-15T08:57:31.486Z,11.40
2022-11-15T09:00:34.153Z,11.40
2022-11-15T09:03:35.953Z,11.50
2022-11-15T09:06:42.970Z,11.60
2022-11-15T09:09:45.081Z,11.70
2022-11-15T09:12:49.478Z,11.70
2022-11-15T09:15:52.039Z,11.80
2022-11-15T09:18:55.604Z,11.90
2022-11-15T09:21:57.250Z,12.00
2022-11-15T09:25:02.315Z,12.10
2022-11-15T09:28:07.973Z,12.10
2022-11-15T09:31:10.469Z,12.20
2022-11-15T09:34:12.924Z,12.20
2022-11-15T09:37:15.136Z,12.20
2022-11-15T09:40:25.554Z,12.10
2022-11-15T09:43:40.960Z,12.10
2022-11-15T09:47:01.093Z,12.10
2022-11-15T09:50:11.230Z,12.10
2022-11-15T09:53:16.296Z,12.10
2022-11-15T09:56:26.855Z,12.20
2022-11-15T10:00:12.232Z,12.20
2022-11-15T10:03:25.008Z,12.30
2022-11-15T10:06:27.930Z,12.40
2022-11-15T10:09:52.505Z,12.50
2022-11-15T10:12:54.861Z,12.60
2022-11-15T10:16:08.651Z,12.60
2022-11-15T10:19:35.233Z,12.80
2022-11-15T10:22:36.898Z,12.80
2022-11-15T10:25:39.567Z,12.90
2022-11-15T10:28:42.398Z,13.00
2022-11-15T10:31:44.653Z,13.00
2022-11-15T10:34:47.553Z,13.10
2022-11-15T10:37:50.005Z,13.10
2022-11-15T10:41:08.579Z,13.10
2022-11-15T10:44:22.968Z,13.10
2022-11-15T10:47:28.441Z,13.10
2022-11-15T10:50:33.203Z,13.10
2022-11-15T10:53:44.924Z,13.20
2022-11-15T10:56:52.058Z,13.30
2022-11-15T11:00:03.443Z,13.30
2022-11-15T11:03:33.095Z,13.30
2022-11-15T11:06:58.831Z,13.20
2022-11-15T11:10:50.873Z,13.10
2022-11-15T11:13:43.158Z,13.10
2022-11-15T11:17:08.076Z,13.10
2022-11-15T11:20:31.364Z,13.10
2022-11-15T11:23:58.350Z,13.00
2022-11-15T11:27:24.122Z,13.00
2022-11-15T11:30:31.774Z,13.00
2022-11-15T11:33:55.763Z,13.00
2022-11-15T11:37:31.753Z,13.00
2022-11-15T11:40:44.297Z,13.00
2022-11-15T11:43:52.033Z,13.00
2022-11-15T11:47:02.154Z,13.10
2022-11-15T11:50:16.968Z,13.10
2022-11-15T11:53:32.328Z,13.10
2022-11-15T11:56:36.415Z,13.10
2022-11-15T11:59:44.845Z,13.20
2022-11-15T12:02:54.063Z,13.10
2022-11-15T12:06:02.262Z,13.20
2022-11-15T12:09:16.380Z,13.10
2022-11-15T12:12:29.510Z,13.10
2022-11-15T12:15:53.696Z,13.10
2022-11-15T12:18:58.041Z,13.20
2022-11-15T12:22:09.856Z,13.20
2022-11-15T12:25:21.294Z,13.20
2022-11-15T12:29:04.420Z,13.10
2022-11-15T12:32:12.243Z,13.20
2022-11-15T12:35:28.245Z,13.20
2022-11-15T12:39:10.471Z,13.30
2022-11-15T12:42:12.192Z,13.30
2022-11-15T12:45:34.977Z,13.30
2022-11-15T12:48:36.659Z,13.30
2022-11-15T12:51:44.459Z,13.30
2022-11-15T12:54:58.837Z,13.40
2022-11-15T12:58:27.403Z,13.40
2022-11-15T13:01:35.014Z,13.40
2022-11-15T13:04:36.876Z,13.40
2022-11-15T13:07:41.970Z,13.40
2022-11-15T13:10:43.729Z,13.40
2022-11-15T13:13:46.518Z,13.50
2022-11-15T13:16:49.721Z,13.50
2022-11-15T13:20:12.413Z,13.50
2022-11-15T13:23:16.733Z,13.60
2022-11-15T13:26:18.805Z,13.60
2022-11-15T13:29:21.399Z,13.60
2022-11-15T13:32:23.514Z,13.60
2022-11-15T13:35:28.931Z,13.60
2022-11-15T13:38:39.598Z,13.70
2022-11-15T13:41:52.515Z,13.70
2022-11-15T13:45:03.625Z,13.80
2022-11-15T13:48:07.197Z,13.70
2022-11-15T13:51:42.819Z,13.70
2022-11-15T13:55:01.597Z,13.70
2022-11-15T13:58:07.234Z,13.70
2022-11-15T14:01:17.291Z,13.70
2022-11-15T14:04:22.967Z,13.70
2022-11-15T14:07:28.915Z,13.70
2022-11-15T14:10:37.186Z,13.80
2022-11-15T14:13:38.997Z,13.70
2022-11-15T14:16:43.831Z,13.70
2022-11-15T14:19:45.756Z,13.70
2022-11-15T14:22:58.804Z,13.70
2022-11-15T14:26:01.063Z,13.70
2022-11-15T14:29:24.690Z,13.60
2022-11-15T14:32:29.641Z,13.60
2022-11-15T14:35:31.348Z,13.60
2022-11-15T14:38:34.556Z,13.70
2022-11-15T14:41:40.112Z,13.60
2022-11-15T14:44:45.774Z,13.60
2022-11-15T14:47:48.761Z,13.60
2022-11-15T14:50:50.537Z,13.60
2022-11-15T14:53:52.404Z,13.60
2022-11-15T14:56:54.154Z,13.60
2022-11-15T14:59:56.027Z,13.70
2022-11-15T15:02:58.038Z,13.60
2022-11-15T15:06:00.124Z,13.60
2022-11-15T15:09:01.853Z,13.60
2022-11-15T15:12:06.473Z,13.60
2022-11-15T15:15:15.725Z,13.60
2022-11-15T15:18:18.377Z,13.60
2022-11-15T15:21:23.402Z,13.60
2022-11-15T15:24:25.163Z,13.60
2022-11-15T15:27:27.173Z,13.50
2022-11-15T15:30:32.501Z,13.50
2022-11-15T15:33:35.421Z,13.40
2022-11-15T15:36:37.821Z,13.40
2022-11-15T15:39:39.648Z,13.30
2022-11-15T15:42:41.581Z,13.30
2022-11-15T15:45:45.983Z,13.30
2022-11-15T15:48:48.220Z,13.30
2022-11-15T15:51:49.998Z,13.40
2022-11-15T15:54:51.765Z,13.30
2022-11-15T15:57:54.159Z,13.20
2022-11-15T16:00:56.227Z,13.20
2022-11-15T16:03:58.029Z,13.20
2022-11-15T16:07:01.059Z,13.20
2022-11-15T16:10:15.148Z,13.20
2022-11-15T16:13:18.507Z,13.30
2022-11-15T16:16:21.254Z,13.20
2022-11-15T16:19:22.959Z,13.10
2022-11-15T16:22:24.657Z,13.10
2022-11-15T16:25:27.220Z,13.00
2022-11-15T16:28:32.279Z,13.00
2022-11-15T16:31:34.414Z,13.00
2022-11-15T16:34:41.916Z,13.00
2022-11-15T16:37:46.540Z,13.00
2022-11-15T16:40:48.326Z,13.00
2022-11-15T16:43:50.151Z,12.90
2022-11-15T16:46:52.044Z,12.90
2022-11-15T16:49:53.827Z,12.90
2022-11-15T16:52:58.048Z,12.80
2022-11-15T16:55:59.817Z,12.80
2022-11-15T16:59:02.341Z,12.80
2022-11-15T17:02:04.311Z,12.80
2022-11-15T17:05:09.999Z,12.80
2022-11-15T17:08:13.699Z,12.80
2022-11-15T17:11:21.034Z,12.90
2022-11-15T17:14:23.024Z,12.90
2022-11-15T17:17:26.433Z,12.90
2022-11-15T17:23:49.286Z,12.90
2022-11-15T17:26:50.993Z,12.80
2022-11-15T17:29:53.212Z,12.80
2022-11-15T17:32:56.348Z,12.80
2022-11-15T17:35:59.909Z,12.80
2022-11-15T17:39:02.037Z,12.90
2022-11-15T17:42:04.177Z,13.00
2022-11-15T17:45:09.873Z,13.00
2022-11-15T17:48:12.540Z,13.10
2022-11-15T17:51:16.729Z,13.10
2022-11-15T17:54:18.614Z,13.10
2022-11-15T17:57:20.363Z,13.00
2022-11-15T18:00:22.239Z,13.00
2022-11-15T18:03:23.946Z,13.00
2022-11-15T18:06:26.280Z,13.00
2022-11-15T18:09:28.148Z,13.00
2022-11-15T18:12:30.177Z,13.00
2022-11-15T18:15:32.299Z,12.90
2022-11-15T18:18:35.673Z,13.00
2022-11-15T18:21:56.117Z,13.00
2022-11-15T18:24:58.663Z,13.00
2022-11-15T18:28:00.330Z,12.90
2022-11-15T18:31:03.368Z,13.00
2022-11-15T18:34:05.948Z,13.00
2022-11-15T18:37:08.084Z,12.90
2022-11-15T18:40:10.291Z,13.00
2022-11-15T18:43:11.985Z,13.00
2022-11-15T18:46:16.631Z,13.00
2022-11-15T18:49:20.312Z,13.10
2022-11-15T18:52:22.663Z,13.10
2022-11-15T18:55:24.817Z,13.10
2022-11-15T18:58:32.381Z,13.10
2022-11-15T19:01:40.076Z,13.00
2022-11-15T19:04:41.855Z,13.00
2022-11-15T19:07:43.547Z,13.10
2022-11-15T19:10:45.664Z,13.10
2022-11-15T19:13:48.094Z,13.10
2022-11-15T19:16:52.100Z,13.10
2022-11-15T19:19:53.953Z,13.10
2022-11-15T19:22:56.400Z,13.10
2022-11-15T19:26:01.186Z,13.10
2022-11-15T19:29:02.934Z,13.20
2022-11-15T19:32:05.231Z,13.20
2022-11-15T19:35:07.290Z,13.20
2022-11-15T19:38:09.062Z,13.10
2022-11-15T19:41:16.220Z,13.10
2022-11-15T19:44:18.942Z,13.00
2022-11-15T19:47:20.968Z,13.00
2022-11-15T19:50:22.809Z,13.00
2022-11-15T19:53:24.605Z,12.90
2022-11-15T19:56:28.391Z,12.90
2022-11-15T19:59:30.396Z,12.90
2022-11-15T20:02:32.601Z,13.00
2022-11-15T20:05:34.333Z,13.00
2022-11-15T20:08:36.661Z,13.00
2022-11-15T20:11:39.503Z,13.00
2022-11-15T20:14:41.253Z,13.00
2022-11-15T20:17:43.022Z,13.00
2022-11-15T20:20:45.806Z,13.00
2022-11-15T20:23:50.972Z,13.10
2022-11-15T20:26:52.893Z,13.10
2022-11-15T20:29:54.776Z,13.20
2022-11-15T20:32:56.946Z,13.20
2022-11-15T20:36:02.684Z,13.30
2022-11-15T20:39:04.447Z,13.20
2022-11-15T20:42:06.190Z,13.20
2022-11-15T20:45:08.155Z,13.20
2022-11-15T20:48:10.374Z,13.10
2022-11-15T20:51:15.149Z,13.20
2022-11-15T20:54:17.108Z,13.20
2022-11-15T20:57:18.973Z,13.20
2022-11-15T21:00:24.987Z,13.20
2022-11-15T21:03:26.861Z,13.30
2022-11-15T21:06:28.793Z,13.20
2022-11-15T21:09:49.065Z,13.20
2022-11-15T21:12:51.111Z,13.20
2022-11-15T21:15:57.696Z,13.10
2022-11-15T21:18:59.533Z,13.10
2022-11-15T21:22:02.906Z,13.10
2022-11-15T21:25:05.133Z,13.10
2022-11-15T21:28:06.899Z,13.10
2022-11-15T21:31:09.160Z,13.00
2022-11-15T21:34:11.156Z,13.00
2022-11-15T21:37:12.933Z,13.00
2022-11-15T21:40:15.028Z,13.00
2022-11-15T21:43:17.380Z,12.90
2022-11-15T21:46:19.149Z,12.90
2022-11-15T21:49:22.366Z,12.90
2022-11-15T21:52:24.053Z,12.90
2022-11-15T21:55:25.846Z,12.80
2022-11-15T21:58:28.811Z,12.80
2022-11-15T22:01:49.221Z,12.80
2022-11-15T22:04:51.093Z,12.80
2022-11-15T22:07:52.956Z,12.80
2022-11-15T22:10:57.024Z,12.80
2022-11-15T22:13:59.559Z,12.80
2022-11-15T22:17:01.254Z,12.80
2022-11-15T22:20:16.836Z,12.80
2022-11-15T22:23:26.857Z,12.70
2022-11-15T22:26:28.903Z,12.80
2022-11-15T22:29:30.645Z,12.80
2022-11-15T22:32:33.142Z,12.80
2022-11-15T22:35:38.791Z,12.80
2022-11-15T22:38:40.665Z,12.80
2022-11-15T22:41:42.488Z,12.80
2022-11-15T22:44:44.405Z,12.80
2022-11-15T22:47:46.077Z,13.00
2022-11-15T22:50:48.019Z,12.90
2022-11-15T22:53:49.957Z,13.00
2022-11-15T22:56:51.826Z,12.90
2022-11-15T22:59:53.897Z,12.90
2022-11-15T23:02:55.848Z,12.80
2022-11-15T23:06:06.516Z,12.80
2022-11-15T23:09:10.005Z,12.90
2022-11-15T23:12:30.719Z,12.90
2022-11-15T23:15:51.195Z,12.90
2022-11-15T23:18:56.121Z,12.90
2022-11-15T23:22:16.382Z,12.90
2022-11-15T23:25:19.113Z,12.90
2022-11-15T23:28:21.420Z,12.90
2022-11-15T23:31:41.632Z,12.90
2022-11-15T23:34:45.287Z,12.90
2022-11-15T23:37:47.010Z,12.90
2022-11-15T23:40:53.054Z,12.80
2022-11-15T23:43:54.922Z,12.90
2022-11-15T23:46:56.783Z,12.80
2022-11-15T23:49:58.459Z,12.80
2022-11-15T23:53:00.169Z,12.80
2022-11-15T23:56:04.989Z,12.80
2022-11-15T23:59:06.848Z,12.80
